Flight Track Log - Related Links

Times and Time Zones

All times are in EDT time to prevent confusion due to time zone crossing. See the SPK206 flight status page for this flight to view local times or setup timezone preferences in your user account.

Time Position Orientation Groundspeed Altitude Reporting Facility
EDT Latitude Longitude Course Direction KTS MPH feet Rate Location/Type
Fri 11:26:29 PM 33.9000 -84.2333 90° East 158 182 3,200  Level Atlanta TRACON
Fri 11:27:23 PM 33.9000 -84.1833 90° East 164 189 4,300 1,300 Climbing Atlanta TRACON
Fri 11:28:29 PM 33.9167 -84.1167 73° East 170 196 5,800 1,333 Climbing Atlanta TRACON
Fri 11:29:29 PM 33.9167 -84.0667 90° East 177 204 7,100 1,238 Climbing Atlanta TRACON
Fri 11:30:35 PM 33.9167 -84.0000 90° East 186 214 8,400 1,169 Climbing Atlanta TRACON
Fri 11:32:44 PM 33.9236 -83.8561 87° East 194 223 10,900 825 Climbing Atlanta Center
Fri 11:33:44 PM 33.9214 -83.7808 92° East 208 239 11,000 50 Climbing Atlanta Center
Fri 11:34:44 PM 33.9253 -83.7008 87° East 228 262 11,000 150 Level Atlanta Center
Fri 11:35:44 PM 33.9669 -83.6356 52° Northeast 228 262 11,300 700 Climbing Atlanta Center
Fri 11:36:44 PM 34.0022 -83.5778 54° Northeast 228 262 12,400 1,150 Climbing Atlanta Center
Fri 11:37:44 PM 34.0394 -83.5225 51° Northeast 221 254 13,600 1,150 Climbing Atlanta Center
Fri 11:38:44 PM 34.0706 -83.4694 55° Northeast 198 228 14,700 1,050 Climbing Atlanta Center
Fri 11:39:44 PM 34.1036 -83.4192 52° Northeast 198 228 15,700 1,050 Climbing Atlanta Center
Fri 11:40:44 PM 34.1389 -83.3686 50° Northeast 198 228 16,800 1,000 Climbing Atlanta Center
Fri 11:41:44 PM 34.1700 -83.3156 55° Northeast 203 234 17,700 900 Climbing Atlanta Center
Fri 11:42:44 PM 34.2050 -83.2628 51° Northeast 198 228 18,600 900 Climbing Atlanta Center
Fri 11:43:44 PM 34.2361 -83.2097 55° Northeast 198 228 19,500 950 Climbing Atlanta Center
Fri 11:44:44 PM 34.2711 -83.1564 52° Northeast 198 228 20,500 1,000 Climbing Atlanta Center
Fri 11:45:44 PM 34.3019 -83.1058 54° Northeast 193 222 21,500 950 Climbing Atlanta Center
Fri 11:46:44 PM 34.3328 -83.0503 56° Northeast 188 216 22,400 750 Climbing Atlanta Center
Fri 11:47:44 PM 34.3681 -83.0019 49° Northeast 188 216 23,000 300 Climbing Atlanta Center
Fri 11:48:44 PM 34.4008 -82.9436 56° Northeast 193 222 23,000  Level Atlanta Center
Fri 11:49:44 PM 34.4419 -82.8803 52° Northeast 220 253 23,000  Level Atlanta Center
Fri 11:50:44 PM 34.4811 -82.8167 53° Northeast 227 261 23,000  Level Atlanta Center
Fri 11:51:44 PM 34.5200 -82.7556 52° Northeast 232 267 23,000  Level Atlanta Center
Fri 11:52:44 PM 34.5611 -82.6894 53° Northeast 226 260 23,000  Level Atlanta Center
Fri 11:53:44 PM 34.6000 -82.6256 54° Northeast 226 260 23,000  Level Atlanta Center
Fri 11:54:44 PM 34.6411 -82.5669 50° Northeast 232 267 23,000  Level Atlanta Center
Fri 11:55:44 PM 34.6800 -82.5006 55° Northeast 232 267 23,000  Level Atlanta Center
Fri 11:56:44 PM 34.7167 -82.4417 53° Northeast 232 267 23,000  Level Atlanta Center
Fri 11:57:44 PM 34.7556 -82.3803 52° Northeast 227 261 23,000  Level Atlanta Center
Fri 11:58:44 PM 34.7944 -82.3164 53° Northeast 227 261 23,000  Level Atlanta Center
Fri 11:59:44 PM 34.8353 -82.2522 52° Northeast 227 261 23,000  Level Atlanta Center
Sat 12:00:44 AM 34.8717 -82.1831 57° Northeast 233 268 23,000  Level Atlanta Center
Sat 12:01:44 AM 34.9103 -82.1164 55° Northeast 233 268 23,000  Level Atlanta Center
Sat 12:02:44 AM 34.9550 -82.0444 53° Northeast 238 274 23,000  Level Atlanta Center
Sat 12:03:44 AM 34.9917 -81.9775 56° Northeast 238 274 23,000  Level Atlanta Center
Sat 12:04:44 AM 35.0281 -81.9106 56° Northeast 238 274 23,000  Level Atlanta Center
Sat 12:05:44 AM 35.0664 -81.8436 55° Northeast 243 280 23,000  Level Atlanta Center
Sat 12:06:44 AM 35.1028 -81.7767 56° Northeast 243 280 23,000  Level Atlanta Center
Sat 12:07:44 AM 35.1392 -81.7122 55° Northeast 243 280 23,000  Level Atlanta Center
Sat 12:08:44 AM 35.1775 -81.6450 55° Northeast 243 280 23,000  Level Atlanta Center
Sat 12:09:44 AM 35.2097 -81.5831 58° Northeast 243 280 23,000  Level Atlanta Center
Sat 12:10:44 AM 35.2458 -81.5158 57° Northeast 243 280 23,000  Level Atlanta Center
Sat 12:11:44 AM 35.2842 -81.4486 55° Northeast 243 280 23,000  Level Atlanta Center
Sat 12:12:44 AM 35.3222 -81.3814 55° Northeast 243 280 23,000  Level Atlanta Center
Sat 12:13:44 AM 35.3583 -81.3139 57° Northeast 243 280 23,000  Level Atlanta Center
Sat 12:14:44 AM 35.3964 -81.2414 57° Northeast 243 280 23,000  Level Atlanta Center
Sat 12:15:44 AM 35.4344 -81.1711 56° Northeast 243 280 23,000 -300 Level Atlanta Center
Sat 12:16:44 AM 35.4744 -81.0983 56° Northeast 249 287 22,400 -800 Descending Atlanta Center
Sat 12:17:44 AM 35.5183 -81.0203 55° Northeast 264 304 21,400 -1,100 Descending Atlanta Center
Sat 12:18:44 AM 35.5625 -80.9419 55° Northeast 278 320 20,200 -1,200 Descending Atlanta Center
Sat 12:19:44 AM 35.6042 -80.8639 57° Northeast 273 314 19,000 -1,200 Descending Atlanta Center
Sat 12:20:44 AM 35.6481 -80.7856 55° Northeast 273 314 17,800 -1,150 Descending Atlanta Center
Sat 12:21:44 AM 35.6936 -80.6992 57° Northeast 273 314 16,700 -1,150 Descending Atlanta Center
Sat 12:22:44 AM 35.7353 -80.6208 57° Northeast 273 314 15,500 -1,200 Descending Atlanta Center
Sat 12:23:44 AM 35.7769 -80.5450 56° Northeast 266 306 14,300 -1,150 Descending Atlanta Center
Sat 12:24:44 AM 35.8167 -80.4689 57° Northeast 265 305 13,200 -650 Descending Atlanta Center
Sat 12:25:44 AM 35.8561 -80.3956 56° Northeast 265 305 13,000 -800 Descending Atlanta Center
Sat 12:26:44 AM 35.8956 -80.3244 56° Northeast 258 297 11,600 -1,700 Descending Atlanta Center
Sat 12:27:44 AM 35.9331 -80.2483 59° Northeast 253 291 9,600 -2,000 Descending Atlanta Center
Sat 12:28:44 AM 35.9683 -80.1775 58° Northeast 248 285 7,600 -2,100 Descending Atlanta Center
Sat 12:29:44 AM 35.9933 -80.1094 66° East 234 269 5,400 -2,200 Descending Atlanta Center
Sat 12:31:00 AM 36.0404 -80.0324 64° Northeast  Level FlightAware Approximate
Sat 12:38:00 AM 36.1000 -79.9333 39° Northeast  Level FlightAware Approximate
Sat 12:39:00 AM 36.1013 -79.9411 39° Northeast  Level Estimated

Login

Don't have an account? Register now (free) for customized features, flight alerts, and more!